Time;durP1;ratioP1;P1;durP2;ratioP2;P2;SDS_P1;SDS_P2;PMS_P1;PMS_P2;Temp;Humidity;BMP_temperature;BMP_pressure;BME280_temperature;BME280_humidity;BME280_pressure;Samples;Min_cycle;Max_cycle;Signal;HPM_P1;HPM_P2
2022/03/12 00:00:27;;;;;;;74.88;10.57;;;;;;;;;;5112599;28;20294;-68
2022/03/12 00:02:54;;;;;;;71.25;9.73;;;;;;;;;;5112214;28;20286;-71
2022/03/12 00:05:25;;;;;;;69.75;11.20;;;;;;;;;;5102979;28;20223;-71
2022/03/12 00:07:52;;;;;;;69.63;10.90;;;;;;;;;;5091321;28;20228;-68
2022/03/12 00:10:22;;;;;;;67.50;9.55;;;;;;;;;;5092076;28;20235;-70
2022/03/12 00:12:50;;;;;;;70.55;8.75;;;;;;;;;;5091896;28;20629;-68
2022/03/12 00:15:18;;;;;;;67.88;9.05;;;;;;;;;;5091662;28;20239;-68
2022/03/12 00:17:45;;;;;;;70.15;10.07;;;;;;;;;;5091156;28;20612;-68
2022/03/12 00:20:13;;;;;;;68.25;9.63;;;;;;;;;;5092139;28;20212;-67
2022/03/12 00:22:45;;;;;;;65.85;9.55;;;;;;;;;;5091393;28;20211;-68
2022/03/12 00:25:13;;;;;;;69.60;9.23;;;;;;;;;;5091779;28;20208;-71
2022/03/12 00:27:41;;;;;;;69.45;9.45;;;;;;;;;;5090831;28;20224;-68
2022/03/12 00:30:09;;;;;;;68.57;10.10;;;;;;;;;;5091706;28;20217;-67
2022/03/12 00:32:37;;;;;;;66.45;10.18;;;;;;;;;;5091555;28;20757;-68
2022/03/12 00:35:05;;;;;;;66.57;9.40;;;;;;;;;;5091562;28;20236;-68
2022/03/12 00:37:32;;;;;;;66.07;9.63;;;;;;;;;;5098271;28;20205;-67
2022/03/12 00:40:00;;;;;;;71.00;10.10;;;;;;;;;;5112464;28;20295;-68
2022/03/12 00:42:28;;;;;;;68.47;10.13;;;;;;;;;;5111923;28;20775;-68
2022/03/12 00:44:55;;;;;;;69.82;9.95;;;;;;;;;;5111838;28;20294;-68
2022/03/12 00:47:22;;;;;;;67.60;9.85;;;;;;;;;;5110846;28;20605;-70
2022/03/12 00:49:50;;;;;;;86.90;10.88;;;;;;;;;;5112441;28;20199;-68
2022/03/12 00:52:17;;;;;;;76.05;10.65;;;;;;;;;;5112000;28;20698;-69
2022/03/12 00:54:44;;;;;;;178.65;52.63;;;;;;;;;;5111636;28;20316;-68
2022/03/12 00:57:13;;;;;;;75.32;12.02;;;;;;;;;;5110891;28;20229;-68
2022/03/12 00:59:40;;;;;;;68.35;9.88;;;;;;;;;;5112168;28;20206;-68
2022/03/12 01:02:07;;;;;;;69.22;9.88;;;;;;;;;;5112115;28;20207;-68
2022/03/12 01:04:35;;;;;;;70.88;9.73;;;;;;;;;;5111659;28;20245;-68
2022/03/12 01:07:02;;;;;;;65.55;8.35;;;;;;;;;;5110433;28;20646;-69
2022/03/12 01:09:30;;;;;;;68.25;9.38;;;;;;;;;;5109829;28;20203;-68
2022/03/12 01:11:57;;;;;;;68.75;9.70;;;;;;;;;;5112132;28;20302;-67
2022/03/12 01:14:26;;;;;;;68.22;8.73;;;;;;;;;;5111651;28;20206;-67
2022/03/12 01:16:57;;;;;;;67.70;9.18;;;;;;;;;;5111850;28;20254;-67
2022/03/12 01:19:24;;;;;;;67.03;9.00;;;;;;;;;;5111700;28;20290;-68
2022/03/12 01:21:51;;;;;;;65.32;7.90;;;;;;;;;;5112176;28;20445;-67
2022/03/12 01:24:18;;;;;;;72.35;8.25;;;;;;;;;;5111479;28;20206;-68
2022/03/12 01:26:46;;;;;;;68.72;8.15;;;;;;;;;;5111652;28;20224;-71
2022/03/12 01:29:13;;;;;;;65.88;8.35;;;;;;;;;;5111054;28;20231;-67
2022/03/12 01:31:41;;;;;;;68.28;8.52;;;;;;;;;;5111747;28;20210;-69
2022/03/12 01:34:08;;;;;;;68.32;9.52;;;;;;;;;;5113350;28;20584;-68
2022/03/12 01:36:36;;;;;;;70.65;8.35;;;;;;;;;;5115452;28;20219;-67
2022/03/12 01:39:03;;;;;;;67.90;8.63;;;;;;;;;;5114612;28;20224;-67
2022/03/12 01:41:32;;;;;;;69.35;9.00;;;;;;;;;;5115333;28;20745;-67
2022/03/12 01:44:00;;;;;;;76.40;10.88;;;;;;;;;;5115355;28;20204;-66
2022/03/12 01:46:34;;;;;;;72.93;9.00;;;;;;;;;;5115171;28;20258;-67
2022/03/12 01:49:05;;;;;;;70.38;9.80;;;;;;;;;;5114498;28;20604;-67
2022/03/12 01:51:33;;;;;;;72.15;10.25;;;;;;;;;;5115110;28;20211;-66
2022/03/12 01:54:01;;;;;;;80.35;7.70;;;;;;;;;;5115196;28;20211;-69
2022/03/12 01:56:29;;;;;;;65.40;8.32;;;;;;;;;;5115132;28;20230;-66
2022/03/12 01:58:57;;;;;;;68.07;9.20;;;;;;;;;;5114325;28;20682;-71
2022/03/12 02:01:27;;;;;;;71.75;9.05;;;;;;;;;;5114996;27;20663;-69
2022/03/12 02:03:56;;;;;;;67.07;8.57;;;;;;;;;;5114777;28;20295;-71
2022/03/12 02:06:25;;;;;;;66.63;9.55;;;;;;;;;;5115235;28;20300;-67
2022/03/12 02:08:56;;;;;;;68.57;8.88;;;;;;;;;;5114175;28;20746;-66
2022/03/12 02:11:27;;;;;;;69.45;9.18;;;;;;;;;;5114979;28;20280;-67
2022/03/12 02:13:58;;;;;;;73.68;10.82;;;;;;;;;;5114935;28;20239;-67
2022/03/12 02:16:26;;;;;;;68.03;8.60;;;;;;;;;;5114766;28;20224;-67
2022/03/12 02:18:53;;;;;;;69.95;10.52;;;;;;;;;;5114162;28;20199;-68
2022/03/12 02:21:35;;;;;;;67.28;9.05;;;;;;;;;;5114779;28;20203;-67
2022/03/12 02:24:04;;;;;;;66.07;8.25;;;;;;;;;;5115344;28;20208;-67
2022/03/12 02:26:31;;;;;;;69.57;9.70;;;;;;;;;;5114673;28;20223;-67
2022/03/12 02:28:58;;;;;;;67.28;9.25;;;;;;;;;;5113781;28;20608;-67
2022/03/12 02:31:26;;;;;;;67.28;9.20;;;;;;;;;;5114406;28;20208;-71
2022/03/12 02:33:54;;;;;;;70.88;8.73;;;;;;;;;;5114501;28;20208;-71
2022/03/12 02:36:26;;;;;;;71.45;9.27;;;;;;;;;;5114206;28;20255;-67
2022/03/12 02:38:54;;;;;;;66.00;8.10;;;;;;;;;;5113610;28;20196;-66
2022/03/12 02:41:25;;;;;;;71.85;9.35;;;;;;;;;;5114146;28;20207;-71
2022/03/12 02:43:52;;;;;;;63.95;7.43;;;;;;;;;;5110907;28;20668;-66
2022/03/12 02:46:20;;;;;;;68.65;9.32;;;;;;;;;;5113818;28;20220;-67
2022/03/12 02:48:50;;;;;;;73.95;12.38;;;;;;;;;;5113651;28;20318;-66
2022/03/12 02:51:17;;;;;;;73.35;10.68;;;;;;;;;;5114158;28;20211;-67
2022/03/12 02:53:45;;;;;;;81.63;13.90;;;;;;;;;;5113728;28;20298;-67
2022/03/12 02:56:12;;;;;;;78.88;12.80;;;;;;;;;;5113941;28;20219;-70
2022/03/12 02:58:41;;;;;;;65.97;8.18;;;;;;;;;;5113254;28;20203;-67
2022/03/12 03:01:13;;;;;;;70.15;9.15;;;;;;;;;;5113839;28;20208;-66
2022/03/12 03:03:41;;;;;;;77.78;10.40;;;;;;;;;;5113726;28;20204;-67
2022/03/12 03:06:09;;;;;;;71.18;11.10;;;;;;;;;;5113659;28;20223;-67
2022/03/12 03:08:39;;;;;;;70.53;9.52;;;;;;;;;;5113010;28;20219;-70
2022/03/12 03:11:11;;;;;;;67.90;8.80;;;;;;;;;;5113598;28;20250;-67
2022/03/12 03:13:40;;;;;;;72.15;8.27;;;;;;;;;;5113872;28;20195;-67
2022/03/12 03:16:10;;;;;;;65.88;9.00;;;;;;;;;;5113975;28;20678;-67
2022/03/12 03:18:40;;;;;;;68.07;8.40;;;;;;;;;;5112984;28;20200;-67
2022/03/12 03:21:09;;;;;;;66.88;8.80;;;;;;;;;;5113528;28;20727;-66
2022/03/12 03:23:36;;;;;;;68.10;9.55;;;;;;;;;;5113383;28;20204;-67
2022/03/12 03:26:04;;;;;;;66.78;8.40;;;;;;;;;;5113290;28;20223;-67
2022/03/12 03:28:31;;;;;;;73.68;9.48;;;;;;;;;;5112670;28;20598;-68
2022/03/12 03:30:58;;;;;;;65.82;7.10;;;;;;;;;;5113274;28;20217;-66
2022/03/12 03:33:28;;;;;;;66.88;8.63;;;;;;;;;;5113325;28;20203;-68
2022/03/12 03:35:55;;;;;;;67.05;9.23;;;;;;;;;;5113277;28;20314;-69
2022/03/12 03:38:23;;;;;;;66.90;8.48;;;;;;;;;;5112503;28;20200;-67
2022/03/12 03:40:50;;;;;;;67.90;8.50;;;;;;;;;;5113080;28;20299;-67
2022/03/12 03:43:29;;;;;;;65.90;8.90;;;;;;;;;;5113218;28;20214;-70
2022/03/12 03:45:58;;;;;;;66.32;9.05;;;;;;;;;;5113063;28;20602;-67
2022/03/12 03:48:26;;;;;;;68.35;9.27;;;;;;;;;;5112404;28;20207;-67
2022/03/12 03:50:54;;;;;;;67.18;8.52;;;;;;;;;;5112874;28;20206;-71
2022/03/12 03:53:22;;;;;;;70.50;9.52;;;;;;;;;;5112611;28;20200;-71
2022/03/12 03:55:50;;;;;;;64.88;8.10;;;;;;;;;;5112591;27;20231;-71
2022/03/12 03:58:17;;;;;;;67.60;10.13;;;;;;;;;;5112283;28;20251;-67
2022/03/12 04:00:53;;;;;;;67.35;8.55;;;;;;;;;;5112866;28;20207;-67
2022/03/12 04:03:20;;;;;;;64.88;7.80;;;;;;;;;;5112576;28;20207;-68
2022/03/12 04:05:48;;;;;;;68.50;9.32;;;;;;;;;;5112537;28;20334;-67
2022/03/12 04:08:15;;;;;;;71.18;9.45;;;;;;;;;;5112158;28;20290;-66
2022/03/12 04:10:43;;;;;;;68.68;10.63;;;;;;;;;;5112472;28;20587;-67
2022/03/12 04:13:12;;;;;;;66.10;8.90;;;;;;;;;;5112737;28;20586;-67
2022/03/12 04:15:39;;;;;;;72.03;9.32;;;;;;;;;;5112454;28;20619;-66
2022/03/12 04:18:07;;;;;;;66.38;7.97;;;;;;;;;;5111881;28;20357;-69
2022/03/12 04:20:35;;;;;;;68.47;10.20;;;;;;;;;;5112269;28;20687;-67
2022/03/12 04:23:04;;;;;;;67.43;9.30;;;;;;;;;;5112331;28;20207;-67
2022/03/12 04:25:31;;;;;;;68.43;9.90;;;;;;;;;;5112425;28;20237;-67
2022/03/12 04:27:58;;;;;;;68.13;9.68;;;;;;;;;;5111820;28;20316;-66
2022/03/12 04:30:26;;;;;;;64.95;8.80;;;;;;;;;;5112179;28;20229;-67
2022/03/12 04:32:53;;;;;;;67.80;9.30;;;;;;;;;;5112155;28;20204;-68
2022/03/12 04:35:21;;;;;;;67.50;9.20;;;;;;;;;;5112353;28;20224;-67
2022/03/12 04:37:48;;;;;;;70.07;9.48;;;;;;;;;;5111708;28;20214;-67
2022/03/12 04:40:20;;;;;;;66.20;8.18;;;;;;;;;;5112262;28;20231;-67
2022/03/12 04:42:48;;;;;;;69.10;8.52;;;;;;;;;;5112332;28;20208;-67
2022/03/12 04:45:17;;;;;;;71.25;9.93;;;;;;;;;;5112023;28;20207;-71
2022/03/12 04:47:45;;;;;;;70.40;8.38;;;;;;;;;;5111406;28;20216;-67
2022/03/12 04:50:12;;;;;;;69.55;8.60;;;;;;;;;;5112230;28;20664;-67
2022/03/12 04:52:40;;;;;;;68.53;8.38;;;;;;;;;;5111942;28;20683;-66
2022/03/12 04:55:09;;;;;;;68.13;9.10;;;;;;;;;;5112131;28;20229;-72
2022/03/12 04:57:37;;;;;;;66.75;9.73;;;;;;;;;;5111552;28;20292;-67
2022/03/12 05:00:05;;;;;;;66.82;9.02;;;;;;;;;;5111914;28;20276;-67
2022/03/12 05:02:33;;;;;;;65.65;9.43;;;;;;;;;;5112250;28;20212;-67
2022/03/12 05:05:00;;;;;;;68.97;9.18;;;;;;;;;;5112314;28;20253;-68
2022/03/12 05:07:27;;;;;;;67.20;8.70;;;;;;;;;;5112319;28;20211;-67
2022/03/12 05:09:54;;;;;;;65.50;8.23;;;;;;;;;;5116328;28;20203;-67
2022/03/12 05:12:23;;;;;;;70.30;9.18;;;;;;;;;;5115977;28;20209;-68
2022/03/12 05:14:54;;;;;;;67.78;9.25;;;;;;;;;;5116334;28;20203;-67
2022/03/12 05:17:23;;;;;;;66.22;9.18;;;;;;;;;;5115428;28;20607;-67
2022/03/12 05:19:51;;;;;;;67.28;9.70;;;;;;;;;;5115875;28;20231;-67
2022/03/12 05:22:18;;;;;;;67.13;9.30;;;;;;;;;;5115742;28;20200;-72
2022/03/12 05:24:45;;;;;;;67.13;8.73;;;;;;;;;;5115749;28;20253;-67
2022/03/12 05:27:14;;;;;;;68.38;9.60;;;;;;;;;;5114797;28;20223;-68
2022/03/12 05:29:41;;;;;;;68.55;9.70;;;;;;;;;;5115737;28;20218;-67
2022/03/12 05:32:13;;;;;;;66.68;8.43;;;;;;;;;;5115704;28;20211;-68
2022/03/12 05:34:40;;;;;;;74.85;9.57;;;;;;;;;;5115718;28;20633;-67
2022/03/12 05:37:08;;;;;;;71.93;9.65;;;;;;;;;;5115129;28;20730;-69
2022/03/12 05:39:35;;;;;;;66.30;8.57;;;;;;;;;;5115268;28;20591;-67
2022/03/12 05:42:05;;;;;;;66.97;9.15;;;;;;;;;;5115396;28;20208;-69
2022/03/12 05:44:34;;;;;;;65.15;8.25;;;;;;;;;;5115271;28;20219;-71
2022/03/12 05:47:01;;;;;;;69.75;9.23;;;;;;;;;;5115176;28;20226;-68
2022/03/12 05:49:29;;;;;;;67.32;8.18;;;;;;;;;;5114631;27;20286;-67
2022/03/12 05:51:58;;;;;;;68.18;9.57;;;;;;;;;;5115241;28;20666;-71
2022/03/12 05:54:26;;;;;;;68.80;9.70;;;;;;;;;;5114924;28;20213;-68
2022/03/12 05:56:54;;;;;;;70.22;8.70;;;;;;;;;;5114940;28;20772;-70
2022/03/12 05:59:21;;;;;;;66.78;9.38;;;;;;;;;;5114297;28;20232;-68
2022/03/12 06:01:50;;;;;;;67.82;8.77;;;;;;;;;;5115138;28;20646;-67
2022/03/12 06:04:26;;;;;;;67.70;9.73;;;;;;;;;;5114829;28;20210;-72
2022/03/12 06:06:55;;;;;;;67.75;8.60;;;;;;;;;;5114815;28;20718;-67
2022/03/12 06:09:23;;;;;;;72.60;10.63;;;;;;;;;;5114631;28;20605;-67
2022/03/12 06:11:53;;;;;;;65.85;8.60;;;;;;;;;;5115022;28;20580;-68
2022/03/12 06:14:21;;;;;;;69.95;9.25;;;;;;;;;;5114898;28;20203;-67
2022/03/12 06:16:49;;;;;;;66.90;8.90;;;;;;;;;;5114766;28;20229;-67
2022/03/12 06:19:17;;;;;;;67.40;9.13;;;;;;;;;;5113209;28;20660;-68
2022/03/12 06:21:44;;;;;;;65.78;9.05;;;;;;;;;;5114891;28;20616;-67
2022/03/12 06:24:13;;;;;;;66.95;9.02;;;;;;;;;;5114705;27;20210;-67
2022/03/12 06:26:40;;;;;;;69.35;10.10;;;;;;;;;;5114593;28;20231;-69
2022/03/12 06:29:11;;;;;;;68.82;9.10;;;;;;;;;;5113845;28;20287;-67
2022/03/12 06:31:38;;;;;;;65.75;8.80;;;;;;;;;;5114468;28;20260;-68
2022/03/12 06:34:05;;;;;;;71.15;10.13;;;;;;;;;;5114396;28;20410;-67
2022/03/12 06:36:33;;;;;;;72.45;8.70;;;;;;;;;;5114513;28;20219;-67
2022/03/12 06:39:01;;;;;;;66.32;8.55;;;;;;;;;;5113952;28;20251;-69
2022/03/12 06:41:34;;;;;;;69.20;9.38;;;;;;;;;;5114382;28;20209;-68
2022/03/12 06:44:01;;;;;;;67.22;9.23;;;;;;;;;;5114242;28;20257;-67
2022/03/12 06:46:29;;;;;;;66.47;9.07;;;;;;;;;;5114334;28;20323;-70
2022/03/12 06:48:56;;;;;;;66.63;9.60;;;;;;;;;;5113542;28;20203;-70
2022/03/12 06:51:24;;;;;;;67.13;8.20;;;;;;;;;;5114153;28;20299;-67
2022/03/12 06:53:52;;;;;;;69.38;9.60;;;;;;;;;;5113979;28;20226;-68
2022/03/12 06:56:19;;;;;;;69.68;8.75;;;;;;;;;;5114031;28;20259;-67
2022/03/12 06:58:48;;;;;;;70.47;9.90;;;;;;;;;;5113589;28;20286;-70
2022/03/12 07:01:15;;;;;;;70.10;9.65;;;;;;;;;;5114159;28;20258;-67
2022/03/12 07:03:42;;;;;;;65.45;9.18;;;;;;;;;;5114052;28;20767;-67
2022/03/12 07:06:10;;;;;;;71.93;10.40;;;;;;;;;;5113869;28;20293;-68
2022/03/12 07:08:37;;;;;;;68.00;9.05;;;;;;;;;;5113230;28;20199;-69
2022/03/12 07:11:05;;;;;;;65.70;8.32;;;;;;;;;;5113729;27;20199;-67
2022/03/12 07:13:34;;;;;;;68.78;9.88;;;;;;;;;;5113555;28;20258;-67
2022/03/12 07:16:03;;;;;;;72.90;9.43;;;;;;;;;;5113723;28;20234;-68
2022/03/12 07:18:30;;;;;;;66.05;8.70;;;;;;;;;;5112976;28;20694;-68
2022/03/12 07:20:57;;;;;;;69.78;8.82;;;;;;;;;;5113537;28;20660;-68
2022/03/12 07:23:25;;;;;;;74.30;9.10;;;;;;;;;;5113368;28;20203;-67
2022/03/12 07:25:52;;;;;;;71.72;9.48;;;;;;;;;;5113203;28;20656;-67
2022/03/12 07:28:20;;;;;;;71.03;9.98;;;;;;;;;;5112682;28;20199;-69
2022/03/12 07:30:47;;;;;;;67.57;9.95;;;;;;;;;;5112425;28;20257;-69
2022/03/12 07:33:16;;;;;;;70.55;10.30;;;;;;;;;;5113043;28;20291;-68
2022/03/12 07:35:44;;;;;;;68.05;9.50;;;;;;;;;;5113340;28;20246;-68
2022/03/12 07:38:11;;;;;;;68.97;9.57;;;;;;;;;;5112719;28;20588;-68
2022/03/12 07:40:39;;;;;;;71.40;9.68;;;;;;;;;;5113336;28;20227;-69
2022/03/12 07:43:07;;;;;;;67.88;9.90;;;;;;;;;;5113200;28;20298;-68
2022/03/12 07:45:34;;;;;;;66.68;9.15;;;;;;;;;;5113267;28;20659;-68
2022/03/12 07:48:02;;;;;;;67.63;9.80;;;;;;;;;;5112392;28;20589;-71
2022/03/12 07:50:30;;;;;;;70.60;9.70;;;;;;;;;;5112994;28;20568;-68
2022/03/12 07:52:58;;;;;;;65.20;9.20;;;;;;;;;;5112744;28;20709;-72
2022/03/12 07:55:25;;;;;;;72.40;9.27;;;;;;;;;;5112954;28;20228;-68
2022/03/12 07:57:52;;;;;;;73.05;10.05;;;;;;;;;;5112460;28;20316;-70
2022/03/12 08:00:20;;;;;;;68.10;9.45;;;;;;;;;;5113050;28;20231;-68
2022/03/12 08:02:48;;;;;;;71.47;9.95;;;;;;;;;;5112804;28;20215;-68
2022/03/12 08:05:17;;;;;;;69.50;9.90;;;;;;;;;;5112639;28;20225;-68
2022/03/12 08:07:45;;;;;;;66.93;8.55;;;;;;;;;;5112006;28;20211;-71
2022/03/12 08:10:12;;;;;;;74.25;9.68;;;;;;;;;;5112831;28;20199;-69
2022/03/12 08:12:40;;;;;;;70.38;9.15;;;;;;;;;;5112364;28;20735;-69
2022/03/12 08:15:09;;;;;;;77.95;9.27;;;;;;;;;;5112205;28;20671;-68
2022/03/12 08:17:36;;;;;;;71.35;9.65;;;;;;;;;;5111825;28;20597;-68
2022/03/12 08:20:05;;;;;;;67.57;10.15;;;;;;;;;;5112367;28;20313;-69
2022/03/12 08:22:32;;;;;;;68.18;9.93;;;;;;;;;;5112656;28;20212;-68
2022/03/12 08:25:00;;;;;;;67.82;8.70;;;;;;;;;;5112598;28;20231;-68
2022/03/12 08:27:27;;;;;;;72.30;9.65;;;;;;;;;;5111909;28;20207;-68
2022/03/12 08:29:55;;;;;;;67.00;9.55;;;;;;;;;;5112305;28;20207;-68
2022/03/12 08:32:22;;;;;;;72.10;9.90;;;;;;;;;;5112349;28;20203;-68
2022/03/12 08:34:49;;;;;;;69.28;9.88;;;;;;;;;;5112550;28;20290;-72
2022/03/12 08:37:16;;;;;;;68.60;10.13;;;;;;;;;;5111533;27;20228;-68
2022/03/12 08:39:43;;;;;;;71.68;10.18;;;;;;;;;;5112153;28;20314;-70
2022/03/12 08:42:12;;;;;;;67.43;9.23;;;;;;;;;;5111999;28;20214;-66
2022/03/12 08:44:39;;;;;;;67.97;9.88;;;;;;;;;;5112224;28;20578;-68
2022/03/12 08:47:07;;;;;;;68.05;9.75;;;;;;;;;;5111681;28;20770;-75
2022/03/12 08:49:35;;;;;;;67.97;9.20;;;;;;;;;;5111835;28;20747;-68
2022/03/12 08:52:02;;;;;;;68.20;10.05;;;;;;;;;;5112187;28;20246;-69
2022/03/12 08:54:30;;;;;;;67.45;10.32;;;;;;;;;;5112302;28;20227;-71
2022/03/12 08:56:57;;;;;;;69.18;10.13;;;;;;;;;;5112435;28;20235;-69
2022/03/12 08:59:25;;;;;;;68.35;9.40;;;;;;;;;;5111328;28;20208;-68
2022/03/12 09:01:53;;;;;;;66.43;9.25;;;;;;;;;;5112164;28;20209;-68
2022/03/12 09:04:20;;;;;;;69.43;9.93;;;;;;;;;;5112209;28;20579;-69
2022/03/12 09:06:48;;;;;;;72.03;10.27;;;;;;;;;;5112214;28;20230;-68
2022/03/12 09:09:16;;;;;;;70.13;10.07;;;;;;;;;;5111082;28;20712;-68
2022/03/12 09:11:43;;;;;;;69.13;9.93;;;;;;;;;;5111988;28;20475;-68
2022/03/12 09:14:12;;;;;;;70.70;11.77;;;;;;;;;;5111737;28;20535;-70
2022/03/12 09:16:41;;;;;;;69.10;11.20;;;;;;;;;;5112137;28;20818;-69
2022/03/12 09:19:08;;;;;;;72.37;11.60;;;;;;;;;;5111699;28;20920;-68
2022/03/12 09:21:37;;;;;;;68.57;10.10;;;;;;;;;;5112009;28;20489;-69
2022/03/12 09:24:04;;;;;;;69.27;10.50;;;;;;;;;;5111901;28;20213;-68
2022/03/12 09:26:31;;;;;;;71.30;11.27;;;;;;;;;;5111766;28;20461;-68
2022/03/12 09:28:58;;;;;;;72.50;10.63;;;;;;;;;;5111053;28;20450;-70
2022/03/12 09:31:26;;;;;;;75.00;10.70;;;;;;;;;;5111765;28;20488;-68
2022/03/12 09:33:55;;;;;;;70.13;10.00;;;;;;;;;;5111842;28;20590;-69
2022/03/12 09:36:22;;;;;;;76.77;11.40;;;;;;;;;;5111920;28;20504;-69
2022/03/12 09:38:49;;;;;;;71.50;12.20;;;;;;;;;;5111003;28;20459;-69
2022/03/12 09:41:16;;;;;;;71.43;12.23;;;;;;;;;;5111627;28;20478;-69
2022/03/12 09:43:43;;;;;;;71.73;11.47;;;;;;;;;;5111578;28;20472;-69
2022/03/12 09:46:10;;;;;;;70.37;11.60;;;;;;;;;;5111829;28;20536;-68
2022/03/12 09:48:37;;;;;;;73.50;12.50;;;;;;;;;;5111112;28;20445;-67
2022/03/12 09:51:06;;;;;;;71.10;11.30;;;;;;;;;;5111724;28;20514;-67
2022/03/12 09:53:34;;;;;;;73.80;12.50;;;;;;;;;;5111536;28;20444;-69
2022/03/12 09:56:01;;;;;;;68.27;10.63;;;;;;;;;;5114560;28;20890;-70
2022/03/12 09:58:28;;;;;;;73.40;12.50;;;;;;;;;;5114560;28;20522;-67
2022/03/12 10:00:56;;;;;;;69.70;11.20;;;;;;;;;;5114977;28;20573;-69
2022/03/12 10:03:23;;;;;;;69.60;12.13;;;;;;;;;;5115035;28;20833;-67
2022/03/12 10:05:50;;;;;;;73.83;15.20;;;;;;;;;;5114887;28;20462;-68
2022/03/12 10:08:18;;;;;;;74.70;13.37;;;;;;;;;;5114195;28;20438;-67
2022/03/12 10:10:45;;;;;;;74.33;13.07;;;;;;;;;;5115138;28;20526;-70
2022/03/12 10:13:13;;;;;;;73.70;13.20;;;;;;;;;;5115081;28;20453;-68
2022/03/12 10:15:40;;;;;;;70.50;13.13;;;;;;;;;;5114875;28;20836;-68
2022/03/12 10:18:07;;;;;;;72.93;13.00;;;;;;;;;;5114145;28;20481;-68
2022/03/12 10:20:35;;;;;;;68.73;11.90;;;;;;;;;;5114894;28;20486;-69
2022/03/12 10:23:02;;;;;;;74.30;12.70;;;;;;;;;;5114600;28;20441;-71
2022/03/12 10:25:31;;;;;;;70.73;12.30;;;;;;;;;;5114519;28;20476;-69
2022/03/12 10:27:59;;;;;;;70.80;13.07;;;;;;;;;;5113937;28;20498;-69
2022/03/12 10:30:26;;;;;;;74.17;14.03;;;;;;;;;;5114650;28;20479;-72
2022/03/12 10:32:54;;;;;;;71.90;12.93;;;;;;;;;;5114488;28;20442;-69
2022/03/12 10:35:22;;;;;;;72.30;13.83;;;;;;;;;;5114317;28;20468;-68
2022/03/12 10:37:50;;;;;;;69.97;12.10;;;;;;;;;;5113863;28;20442;-68
2022/03/12 10:40:18;;;;;;;77.53;13.20;;;;;;;;;;5114454;28;20487;-68
2022/03/12 10:42:48;;;;;;;69.80;12.43;;;;;;;;;;5114280;28;20453;-69
2022/03/12 10:45:16;;;;;;;73.03;13.13;;;;;;;;;;5114179;28;20448;-68
2022/03/12 10:47:44;;;;;;;70.47;12.00;;;;;;;;;;5113505;28;20476;-69
2022/03/12 10:50:14;;;;;;;68.90;12.60;;;;;;;;;;5114305;27;20443;-68
2022/03/12 10:52:45;;;;;;;69.87;11.83;;;;;;;;;;5114280;28;20447;-68
2022/03/12 10:55:19;;;;;;;68.90;11.83;;;;;;;;;;5114188;28;20463;-68
2022/03/12 10:57:57;;;;;;;69.07;12.53;;;;;;;;;;5113367;28;20961;-68
2022/03/12 11:00:25;;;;;;;68.93;11.70;;;;;;;;;;5113835;28;20575;-68
2022/03/12 11:02:57;;;;;;;68.17;12.03;;;;;;;;;;5114023;28;20532;-69
2022/03/12 11:05:29;;;;;;;68.80;11.33;;;;;;;;;;5113881;28;20895;-69
2022/03/12 11:08:16;;;;;;;69.67;12.60;;;;;;;;;;5113312;28;20449;-69
2022/03/12 11:10:49;;;;;;;67.67;11.70;;;;;;;;;;5113728;28;20439;-72
2022/03/12 11:13:28;;;;;;;70.73;11.90;;;;;;;;;;5114086;28;20454;-69
2022/03/12 11:16:26;;;;;;;70.10;11.80;;;;;;;;;;5113771;28;20461;-72
2022/03/12 11:19:00;;;;;;;68.97;11.87;;;;;;;;;;5050056;28;20454;-72
2022/03/12 11:21:30;;;;;;;68.07;10.77;;;;;;;;;;5102465;28;20487;-70
2022/03/12 11:23:59;;;;;;;65.70;10.17;;;;;;;;;;5113865;28;20812;-69
2022/03/12 11:26:28;;;;;;;65.73;10.57;;;;;;;;;;5113722;28;20470;-69
2022/03/12 11:28:58;;;;;;;65.97;10.90;;;;;;;;;;5112744;28;20882;-69
2022/03/12 11:31:42;;;;;;;69.00;10.97;;;;;;;;;;5113615;28;20997;-71
2022/03/12 11:34:18;;;;;;;67.33;11.27;;;;;;;;;;5113051;28;20452;-69
2022/03/12 11:36:46;;;;;;;70.00;11.63;;;;;;;;;;5113181;28;20465;-72
2022/03/12 11:39:14;;;;;;;67.27;11.03;;;;;;;;;;5112486;28;20475;-69
2022/03/12 11:41:42;;;;;;;68.33;10.73;;;;;;;;;;5113102;28;20537;-69
2022/03/12 11:44:11;;;;;;;67.90;12.27;;;;;;;;;;5113000;27;20456;-69
2022/03/12 11:46:38;;;;;;;68.47;10.73;;;;;;;;;;5113289;28;20480;-70
2022/03/12 11:49:05;;;;;;;67.80;12.03;;;;;;;;;;5112470;28;20477;-69
2022/03/12 11:51:32;;;;;;;68.37;11.60;;;;;;;;;;5113064;28;20545;-69
2022/03/12 11:54:01;;;;;;;65.37;9.23;;;;;;;;;;5112957;28;20476;-70
2022/03/12 11:56:29;;;;;;;67.07;10.53;;;;;;;;;;5112711;28;20981;-70
2022/03/12 11:58:56;;;;;;;67.70;10.80;;;;;;;;;;5112083;28;20968;-70
2022/03/12 12:01:25;;;;;;;67.67;11.23;;;;;;;;;;5113018;28;20517;-68
2022/03/12 12:03:53;;;;;;;74.03;11.00;;;;;;;;;;5112623;28;20463;-69
2022/03/12 12:06:21;;;;;;;66.70;9.83;;;;;;;;;;5112597;28;20999;-70
2022/03/12 12:08:48;;;;;;;63.63;8.43;;;;;;;;;;5111842;28;20544;-73
2022/03/12 12:11:17;;;;;;;63.30;8.40;;;;;;;;;;5112499;28;20473;-69
2022/03/12 12:13:44;;;;;;;65.43;8.80;;;;;;;;;;5112395;28;20458;-69
2022/03/12 12:16:12;;;;;;;63.90;8.20;;;;;;;;;;5112582;28;20992;-69
2022/03/12 12:18:41;;;;;;;64.80;7.87;;;;;;;;;;5110523;28;20459;-71
2022/03/12 12:21:08;;;;;;;63.00;8.30;;;;;;;;;;5112426;28;20545;-69
2022/03/12 12:23:35;;;;;;;61.80;7.10;;;;;;;;;;5112249;28;20479;-72
2022/03/12 12:26:08;;;;;;;61.03;6.07;;;;;;;;;;5112494;28;20500;-69
2022/03/12 12:28:47;;;;;;;61.53;6.70;;;;;;;;;;5111751;28;20447;-70
2022/03/12 12:31:15;;;;;;;63.10;7.80;;;;;;;;;;5111734;28;20477;-70
2022/03/12 12:33:45;;;;;;;63.77;8.13;;;;;;;;;;5112037;28;20441;-69
2022/03/12 12:36:13;;;;;;;61.73;6.30;;;;;;;;;;5112230;28;20829;-69
2022/03/12 12:38:43;;;;;;;63.50;8.30;;;;;;;;;;5111851;28;20453;-69
2022/03/12 12:41:12;;;;;;;60.20;5.80;;;;;;;;;;5112379;28;20495;-70
2022/03/12 12:43:41;;;;;;;61.20;6.10;;;;;;;;;;5112102;28;20453;-68
2022/03/12 12:46:10;;;;;;;61.77;7.10;;;;;;;;;;5112073;28;20465;-68
2022/03/12 12:48:41;;;;;;;62.50;6.80;;;;;;;;;;5111347;28;20801;-69
2022/03/12 12:51:11;;;;;;;60.40;6.13;;;;;;;;;;5111904;28;21005;-69
2022/03/12 12:53:39;;;;;;;67.47;6.67;;;;;;;;;;5112414;28;20828;-69
2022/03/12 12:56:21;;;;;;;61.90;6.80;;;;;;;;;;5112253;28;20473;-68
2022/03/12 12:59:10;;;;;;;61.60;6.40;;;;;;;;;;5109117;28;20457;-69
2022/03/12 13:01:48;;;;;;;61.53;6.77;;;;;;;;;;5107610;28;20457;-69
2022/03/12 13:04:15;;;;;;;66.30;7.30;;;;;;;;;;5111583;28;20449;-69
2022/03/12 13:06:49;;;;;;;61.37;6.70;;;;;;;;;;5110893;28;20550;-69
2022/03/12 13:09:20;;;;;;;60.30;6.80;;;;;;;;;;5110280;28;20451;-71
2022/03/12 13:11:54;;;;;;;60.90;6.30;;;;;;;;;;5111655;28;20481;-69
2022/03/12 13:14:22;;;;;;;62.67;7.90;;;;;;;;;;5111978;28;20881;-68
2022/03/12 13:16:51;;;;;;;65.30;7.60;;;;;;;;;;5111902;28;20470;-69
2022/03/12 13:19:37;;;;;;;62.67;8.40;;;;;;;;;;5110997;28;20449;-69
2022/03/12 13:22:06;;;;;;;64.90;6.97;;;;;;;;;;5112161;28;20529;-69
2022/03/12 13:24:43;;;;;;;64.03;6.80;;;;;;;;;;5111906;28;20545;-69
2022/03/12 13:27:17;;;;;;;60.67;6.47;;;;;;;;;;5111089;28;20548;-70
2022/03/12 13:29:44;;;;;;;62.80;7.10;;;;;;;;;;5112746;28;20457;-68
2022/03/12 13:32:17;;;;;;;61.70;7.27;;;;;;;;;;5115609;28;20851;-69
2022/03/12 13:34:44;;;;;;;62.47;7.60;;;;;;;;;;5115442;28;20488;-68
2022/03/12 13:37:13;;;;;;;64.03;6.67;;;;;;;;;;5115126;28;20473;-68
2022/03/12 13:39:40;;;;;;;61.37;7.23;;;;;;;;;;5115692;28;20481;-68
2022/03/12 13:42:08;;;;;;;62.10;6.30;;;;;;;;;;5115152;28;20437;-69
2022/03/12 13:44:35;;;;;;;62.43;7.20;;;;;;;;;;5115286;28;20473;-69
2022/03/12 13:47:05;;;;;;;61.90;7.43;;;;;;;;;;5114844;28;20477;-70
2022/03/12 13:49:35;;;;;;;62.17;7.53;;;;;;;;;;5114429;28;20445;-68
2022/03/12 13:52:02;;;;;;;62.03;7.97;;;;;;;;;;5114912;28;20481;-68
2022/03/12 13:54:31;;;;;;;62.17;7.40;;;;;;;;;;5115189;28;20457;-69
2022/03/12 13:56:59;;;;;;;62.80;7.83;;;;;;;;;;5114913;28;20568;-68
2022/03/12 13:59:30;;;;;;;66.90;7.37;;;;;;;;;;5113511;28;20446;-69
2022/03/12 14:01:59;;;;;;;61.87;6.83;;;;;;;;;;5114472;28;20536;-70
2022/03/12 14:04:27;;;;;;;64.20;7.27;;;;;;;;;;5114530;28;20879;-69
2022/03/12 14:06:55;;;;;;;63.77;7.50;;;;;;;;;;5114084;28;20462;-69
2022/03/12 14:09:23;;;;;;;62.57;7.60;;;;;;;;;;5114374;28;21207;-69
2022/03/12 14:11:54;;;;;;;64.10;7.53;;;;;;;;;;5114850;28;20565;-69
2022/03/12 14:14:22;;;;;;;64.20;8.03;;;;;;;;;;5114969;28;20453;-68
2022/03/12 14:16:50;;;;;;;65.47;7.70;;;;;;;;;;5114888;27;20544;-69
2022/03/12 14:19:20;;;;;;;66.90;9.30;;;;;;;;;;5114443;28;20450;-68
2022/03/12 14:21:49;;;;;;;63.13;7.90;;;;;;;;;;5114582;28;20607;-69
2022/03/12 14:24:17;;;;;;;64.20;7.30;;;;;;;;;;5114706;28;20443;-69
2022/03/12 14:26:46;;;;;;;62.97;7.80;;;;;;;;;;5114360;28;21037;-68
2022/03/12 14:29:15;;;;;;;63.63;7.50;;;;;;;;;;5113900;28;20478;-68
2022/03/12 14:31:43;;;;;;;63.57;7.53;;;;;;;;;;5114633;28;20791;-68
2022/03/12 14:34:14;;;;;;;62.37;7.50;;;;;;;;;;5114604;28;20825;-67